Time;durP1;ratioP1;P1;durP2;ratioP2;P2;SDS_P1;SDS_P2;PMS_P1;PMS_P2;Temp;Humidity;BMP_temperature;BMP_pressure;BME280_temperature;BME280_humidity;BME280_pressure;Samples;Min_cycle;Max_cycle;Signal;HPM_P1;HPM_P2
2023/01/14 00:00:52;;;;;;;45.47;5.20;;;;;;;;;;5091827;28;20047;-76
2023/01/14 00:03:19;;;;;;;41.47;4.85;;;;;;;;;;5091822;28;20048;-76
2023/01/14 00:05:55;;;;;;;31.73;4.47;;;;;;;;;;5091404;28;20969;-76
2023/01/14 00:08:22;;;;;;;26.58;3.55;;;;;;;;;;5091555;28;20469;-76
2023/01/14 00:10:48;;;;;;;34.38;5.70;;;;;;;;;;5091360;28;20158;-77
2023/01/14 00:13:15;;;;;;;38.30;4.35;;;;;;;;;;5091663;28;20412;-76
2023/01/14 00:15:57;;;;;;;36.75;4.55;;;;;;;;;;5091672;28;20048;-77
2023/01/14 00:18:23;;;;;;;35.53;4.63;;;;;;;;;;5091837;28;20361;-77
2023/01/14 00:21:00;;;;;;;27.83;4.72;;;;;;;;;;5091478;28;20110;-78
2023/01/14 00:23:27;;;;;;;42.13;4.88;;;;;;;;;;5091410;28;20051;-78
2023/01/14 00:25:59;;;;;;;42.20;5.65;;;;;;;;;;5093864;28;20155;-78
2023/01/14 00:28:25;;;;;;;27.67;4.30;;;;;;;;;;5095348;28;20617;-78
2023/01/14 00:30:52;;;;;;;30.02;4.63;;;;;;;;;;5093969;28;20511;-78
2023/01/14 00:33:18;;;;;;;31.38;5.32;;;;;;;;;;5095163;28;20460;-79
2023/01/14 00:35:51;;;;;;;39.05;5.07;;;;;;;;;;5095265;28;20052;-79
2023/01/14 00:38:18;;;;;;;34.85;4.30;;;;;;;;;;5110916;28;20046;-78
2023/01/14 00:40:44;;;;;;;25.73;4.28;;;;;;;;;;5095261;28;20048;-78
2023/01/14 00:43:10;;;;;;;27.27;4.03;;;;;;;;;;5095241;28;20052;-78
2023/01/14 00:45:37;;;;;;;25.95;3.95;;;;;;;;;;5095172;28;20051;-77
2023/01/14 00:48:03;;;;;;;23.55;4.13;;;;;;;;;;5095186;28;20052;-77
2023/01/14 00:50:29;;;;;;;29.98;3.90;;;;;;;;;;5095092;28;20052;-78
2023/01/14 00:52:56;;;;;;;28.88;3.83;;;;;;;;;;5092918;28;20047;-78
2023/01/14 00:55:22;;;;;;;22.40;3.65;;;;;;;;;;5094561;28;20052;-79
2023/01/14 00:57:48;;;;;;;22.92;4.25;;;;;;;;;;5094869;28;20048;-78
2023/01/14 01:00:15;;;;;;;18.90;3.00;;;;;;;;;;5094598;28;20555;-78
2023/01/14 01:02:41;;;;;;;23.52;3.20;;;;;;;;;;5094781;28;20081;-78
2023/01/14 01:05:08;;;;;;;20.73;2.97;;;;;;;;;;5094913;28;20052;-79
2023/01/14 01:07:34;;;;;;;16.08;2.95;;;;;;;;;;5094758;28;20135;-78
2023/01/14 01:10:01;;;;;;;24.42;3.13;;;;;;;;;;5094746;28;20051;-79
2023/01/14 01:12:27;;;;;;;32.08;3.95;;;;;;;;;;5094622;28;20052;-79
2023/01/14 01:14:53;;;;;;;19.10;3.17;;;;;;;;;;5094862;28;20063;-78
2023/01/14 01:17:20;;;;;;;19.50;2.63;;;;;;;;;;5094307;28;20044;-78
2023/01/14 01:19:48;;;;;;;25.77;3.77;;;;;;;;;;5094522;28;20051;-79
2023/01/14 01:22:14;;;;;;;18.52;3.03;;;;;;;;;;5094411;28;20408;-78
2023/01/14 01:24:41;;;;;;;27.98;3.40;;;;;;;;;;5094291;28;20043;-78
2023/01/14 01:27:07;;;;;;;23.25;3.00;;;;;;;;;;5094261;28;20054;-78
2023/01/14 01:29:33;;;;;;;22.48;2.78;;;;;;;;;;5094468;28;20098;-78
2023/01/14 01:32:00;;;;;;;23.98;3.30;;;;;;;;;;5094298;28;20048;-77
2023/01/14 01:34:26;;;;;;;31.25;4.28;;;;;;;;;;5093778;28;20083;-77
2023/01/14 01:36:52;;;;;;;26.95;3.80;;;;;;;;;;5093238;28;20054;-77
2023/01/14 01:39:19;;;;;;;21.42;3.42;;;;;;;;;;5093951;28;20048;-77
2023/01/14 01:41:45;;;;;;;38.17;3.72;;;;;;;;;;5093686;28;20047;-77
2023/01/14 01:44:12;;;;;;;20.08;2.38;;;;;;;;;;5093504;28;20490;-77
2023/01/14 01:46:38;;;;;;;27.73;3.58;;;;;;;;;;5093753;28;20127;-77
2023/01/14 01:49:13;;;;;;;14.18;2.25;;;;;;;;;;5093992;28;20067;-77
2023/01/14 01:51:45;;;;;;;17.90;2.00;;;;;;;;;;5093916;28;20418;-77
2023/01/14 01:54:12;;;;;;;15.32;2.08;;;;;;;;;;5093842;28;20047;-77
2023/01/14 01:56:39;;;;;;;20.65;2.55;;;;;;;;;;5093867;28;20083;-77
2023/01/14 01:59:08;;;;;;;25.67;2.83;;;;;;;;;;5093747;28;20052;-77
2023/01/14 02:01:34;;;;;;;18.55;2.85;;;;;;;;;;5093722;28;20052;-78
2023/01/14 02:04:01;;;;;;;9.43;1.60;;;;;;;;;;5093708;28;20067;-78
2023/01/14 02:06:27;;;;;;;16.52;1.98;;;;;;;;;;5093333;28;20080;-78
2023/01/14 02:08:55;;;;;;;6.35;1.42;;;;;;;;;;5093640;28;20055;-78
2023/01/14 02:11:31;;;;;;;7.32;1.65;;;;;;;;;;5093380;28;20119;-78
2023/01/14 02:14:00;;;;;;;12.65;1.80;;;;;;;;;;5093546;28;20407;-78
2023/01/14 02:16:27;;;;;;;9.18;1.92;;;;;;;;;;5079066;28;20044;-77
2023/01/14 02:19:10;;;;;;;7.80;1.75;;;;;;;;;;5093462;28;20048;-78
2023/01/14 02:21:40;;;;;;;9.18;1.98;;;;;;;;;;5093035;28;20048;-78
2023/01/14 02:24:12;;;;;;;5.97;1.70;;;;;;;;;;5092900;28;20491;-78
2023/01/14 02:26:41;;;;;;;9.93;2.30;;;;;;;;;;5093163;28;20044;-78
2023/01/14 02:29:27;;;;;;;6.82;1.90;;;;;;;;;;5093181;28;20135;-78
2023/01/14 02:31:58;;;;;;;13.40;2.28;;;;;;;;;;5093081;28;20082;-78
2023/01/14 02:34:47;;;;;;;7.30;1.70;;;;;;;;;;5092743;28;20056;-77
2023/01/14 02:37:21;;;;;;;9.75;2.08;;;;;;;;;;5084724;28;20135;-77
2023/01/14 02:39:53;;;;;;;17.55;2.17;;;;;;;;;;5108715;28;20059;-77
2023/01/14 02:45:39;;;;;;;19.48;2.00;;;;;;;;;;5092832;28;20044;-76
2023/01/14 02:48:06;;;;;;;26.02;2.53;;;;;;;;;;5089795;28;20047;-76
2023/01/14 02:50:34;;;;;;;37.45;3.22;;;;;;;;;;5092773;28;20048;-76
2023/01/14 02:53:06;;;;;;;27.73;2.55;;;;;;;;;;5092854;28;20052;-75
2023/01/14 02:55:34;;;;;;;11.38;2.00;;;;;;;;;;5092365;28;20055;-76
2023/01/14 02:58:09;;;;;;;18.85;2.33;;;;;;;;;;5108155;28;20139;-77
2023/01/14 03:00:55;;;;;;;13.38;2.17;;;;;;;;;;5092480;28;20048;-76
2023/01/14 03:03:31;;;;;;;24.70;2.70;;;;;;;;;;5092270;28;20568;-75
2023/01/14 03:06:12;;;;;;;30.35;2.88;;;;;;;;;;5092137;28;20052;-76
2023/01/14 03:08:39;;;;;;;24.33;2.05;;;;;;;;;;5092567;28;20411;-75
2023/01/14 03:11:07;;;;;;;24.67;2.25;;;;;;;;;;5092565;28;20399;-77
2023/01/14 03:13:40;;;;;;;17.10;2.03;;;;;;;;;;5092241;28;20087;-78
2023/01/14 03:16:12;;;;;;;35.25;3.20;;;;;;;;;;5092156;28;20484;-78
2023/01/14 03:18:45;;;;;;;17.90;1.73;;;;;;;;;;5092112;28;20047;-77
2023/01/14 03:21:15;;;;;;;27.90;2.33;;;;;;;;;;5092246;28;20154;-76
2023/01/14 03:23:45;;;;;;;14.95;2.13;;;;;;;;;;5091929;28;20510;-78
2023/01/14 03:26:12;;;;;;;20.65;1.80;;;;;;;;;;5092510;28;20176;-76
2023/01/14 03:28:40;;;;;;;12.98;2.63;;;;;;;;;;5092050;28;20040;-76
2023/01/14 03:31:09;;;;;;;16.50;1.95;;;;;;;;;;5092142;28;20048;-76
2023/01/14 03:33:39;;;;;;;16.33;1.85;;;;;;;;;;5091703;28;20139;-76
2023/01/14 03:36:06;;;;;;;23.85;2.22;;;;;;;;;;5091869;28;20044;-76
2023/01/14 03:38:44;;;;;;;18.90;1.73;;;;;;;;;;5091900;28;20479;-76
2023/01/14 03:42:17;;;;;;;19.08;2.00;;;;;;;;;;5092131;28;20071;-76
2023/01/14 03:43:59;;;;;;;19.98;2.33;;;;;;;;;;5091694;28;20043;-76
2023/01/14 03:46:26;;;;;;;27.30;2.87;;;;;;;;;;5091963;28;20055;-76
2023/01/14 03:48:52;;;;;;;21.45;2.35;;;;;;;;;;5091741;28;20054;-75
2023/01/14 03:51:18;;;;;;;22.27;2.40;;;;;;;;;;5091967;28;20048;-75
2023/01/14 03:53:51;;;;;;;20.92;2.17;;;;;;;;;;5091888;28;20048;-75
2023/01/14 03:56:21;;;;;;;19.45;2.20;;;;;;;;;;5090682;28;20063;-76
2023/01/14 03:58:47;;;;;;;17.75;2.58;;;;;;;;;;5091855;28;20127;-75
2023/01/14 04:01:17;;;;;;;25.85;3.25;;;;;;;;;;5095012;28;20074;-76
2023/01/14 04:03:44;;;;;;;15.63;1.88;;;;;;;;;;5096091;28;20139;-77
2023/01/14 04:06:12;;;;;;;24.50;2.47;;;;;;;;;;5095935;28;20040;-76
2023/01/14 04:08:38;;;;;;;19.23;2.17;;;;;;;;;;5095652;28;20070;-77
2023/01/14 04:11:05;;;;;;;14.10;1.90;;;;;;;;;;5095850;28;20042;-77
2023/01/14 04:16:17;;;;;;;27.48;2.92;;;;;;;;;;5095562;28;20211;-75
2023/01/14 04:18:43;;;;;;;22.60;2.75;;;;;;;;;;5095489;28;20040;-75
2023/01/14 04:21:09;;;;;;;18.38;2.75;;;;;;;;;;5095643;28;20050;-76
2023/01/14 04:23:36;;;;;;;22.00;2.80;;;;;;;;;;5095484;28;20521;-76
2023/01/14 04:26:03;;;;;;;29.95;2.70;;;;;;;;;;5094320;28;20372;-77
2023/01/14 04:28:29;;;;;;;21.88;3.35;;;;;;;;;;5095538;28;20044;-76
2023/01/14 04:30:55;;;;;;;13.77;1.77;;;;;;;;;;5095293;28;20040;-76
2023/01/14 04:33:22;;;;;;;15.90;1.95;;;;;;;;;;5095155;28;20048;-73
2023/01/14 04:35:49;;;;;;;12.95;2.30;;;;;;;;;;5095470;28;20143;-74
2023/01/14 04:38:16;;;;;;;23.52;2.17;;;;;;;;;;5095070;28;20135;-74
2023/01/14 04:40:42;;;;;;;23.10;2.42;;;;;;;;;;5095131;28;20052;-74
2023/01/14 04:43:09;;;;;;;19.90;3.47;;;;;;;;;;5094999;28;20478;-73
2023/01/14 04:45:35;;;;;;;23.20;2.53;;;;;;;;;;5094907;28;20131;-73
2023/01/14 04:48:02;;;;;;;31.30;3.03;;;;;;;;;;5110469;28;20164;-74
2023/01/14 04:50:33;;;;;;;13.48;1.90;;;;;;;;;;5095041;28;20134;-73
2023/01/14 04:53:10;;;;;;;18.60;2.05;;;;;;;;;;5095110;28;20040;-73
2023/01/14 04:55:38;;;;;;;13.60;2.42;;;;;;;;;;5094954;28;20043;-72
2023/01/14 04:58:05;;;;;;;13.90;2.60;;;;;;;;;;5095111;28;20052;-73
2023/01/14 05:00:31;;;;;;;28.73;2.65;;;;;;;;;;5094585;28;20055;-73
2023/01/14 05:02:57;;;;;;;16.70;2.08;;;;;;;;;;5094715;28;20078;-73
2023/01/14 05:05:24;;;;;;;11.75;1.25;;;;;;;;;;5094874;28;20126;-73
2023/01/14 05:07:50;;;;;;;30.13;3.05;;;;;;;;;;5080547;28;20131;-73
2023/01/14 05:10:17;;;;;;;17.00;2.20;;;;;;;;;;5094745;28;20040;-73
2023/01/14 05:12:55;;;;;;;19.30;2.40;;;;;;;;;;5092947;28;20075;-73
2023/01/14 05:15:23;;;;;;;54.20;4.43;;;;;;;;;;5093543;28;20048;-72
2023/01/14 05:17:50;;;;;;;16.95;2.00;;;;;;;;;;5094522;28;20054;-73
2023/01/14 05:20:16;;;;;;;15.85;1.80;;;;;;;;;;5094616;28;20131;-73
2023/01/14 05:22:43;;;;;;;24.70;3.30;;;;;;;;;;5094253;28;20130;-73
2023/01/14 05:25:09;;;;;;;16.92;2.38;;;;;;;;;;5094318;28;20041;-73
2023/01/14 05:27:35;;;;;;;20.38;3.47;;;;;;;;;;5094147;28;20058;-73
2023/01/14 05:30:02;;;;;;;15.73;2.70;;;;;;;;;;5094355;28;20080;-73
2023/01/14 05:32:29;;;;;;;19.85;3.08;;;;;;;;;;5094579;28;20127;-74
2023/01/14 05:34:55;;;;;;;19.30;2.88;;;;;;;;;;5093825;28;20056;-74
2023/01/14 05:37:21;;;;;;;17.02;2.47;;;;;;;;;;5094144;28;20048;-74
2023/01/14 05:39:48;;;;;;;17.55;2.35;;;;;;;;;;5093862;28;20152;-73
2023/01/14 05:47:45;;;;;;;20.77;2.70;;;;;;;;;;5093938;28;20043;-73
2023/01/14 05:50:11;;;;;;;19.77;2.72;;;;;;;;;;5094030;28;20051;-74
2023/01/14 05:52:38;;;;;;;15.32;3.08;;;;;;;;;;5094060;28;20140;-73
2023/01/14 05:55:04;;;;;;;12.32;2.50;;;;;;;;;;5093864;28;20084;-74
2023/01/14 05:57:31;;;;;;;18.98;2.85;;;;;;;;;;5093650;28;20430;-73
2023/01/14 05:59:57;;;;;;;20.45;2.72;;;;;;;;;;5093797;28;20050;-73
2023/01/14 06:07:56;;;;;;;18.13;3.08;;;;;;;;;;5093450;28;20579;-73
2023/01/14 06:10:24;;;;;;;22.30;3.72;;;;;;;;;;5093511;28;20132;-74
2023/01/14 06:12:57;;;;;;;22.60;3.42;;;;;;;;;;5093272;28;20055;-73
2023/01/14 06:15:25;;;;;;;22.40;3.10;;;;;;;;;;5093214;28;20859;-73
2023/01/14 06:18:08;;;;;;;20.20;3.22;;;;;;;;;;5093714;28;20048;-73
2023/01/14 06:20:38;;;;;;;23.08;3.55;;;;;;;;;;5093324;28;20059;-73
2023/01/14 06:23:06;;;;;;;21.88;3.45;;;;;;;;;;5092617;28;20086;-73
2023/01/14 06:25:32;;;;;;;17.83;3.00;;;;;;;;;;5092939;28;20044;-73
2023/01/14 06:28:02;;;;;;;23.05;3.28;;;;;;;;;;5092995;28;20406;-73
2023/01/14 06:30:29;;;;;;;20.23;3.05;;;;;;;;;;5092963;28;20131;-72
2023/01/14 06:32:55;;;;;;;24.83;3.47;;;;;;;;;;5093031;28;20056;-73
2023/01/14 06:35:22;;;;;;;15.93;3.42;;;;;;;;;;5092950;28;20044;-73
2023/01/14 06:37:48;;;;;;;26.65;3.33;;;;;;;;;;5093174;28;20052;-73
2023/01/14 06:40:15;;;;;;;26.02;3.53;;;;;;;;;;5093154;28;20051;-73
2023/01/14 06:42:42;;;;;;;16.77;3.40;;;;;;;;;;5092914;28;20047;-72
2023/01/14 06:45:10;;;;;;;19.52;2.85;;;;;;;;;;5091524;28;20050;-72
2023/01/14 06:47:36;;;;;;;25.83;3.50;;;;;;;;;;5092636;28;20093;-72
2023/01/14 06:50:04;;;;;;;23.90;3.72;;;;;;;;;;5092612;28;20113;-73
2023/01/14 06:52:30;;;;;;;21.40;2.58;;;;;;;;;;5092885;28;20044;-73
2023/01/14 06:54:58;;;;;;;16.02;2.85;;;;;;;;;;5092624;28;20047;-72
2023/01/14 06:57:25;;;;;;;22.25;3.22;;;;;;;;;;5091442;28;20091;-71
2023/01/14 06:59:52;;;;;;;29.77;4.07;;;;;;;;;;5092628;28;20052;-72
2023/01/14 07:02:19;;;;;;;28.77;2.70;;;;;;;;;;5092594;28;20071;-72
2023/01/14 07:04:45;;;;;;;17.02;2.85;;;;;;;;;;5092227;28;20393;-72
2023/01/14 07:07:11;;;;;;;25.10;2.92;;;;;;;;;;5092415;28;20376;-72
2023/01/14 07:09:38;;;;;;;58.75;3.55;;;;;;;;;;5092184;28;20044;-72
2023/01/14 07:12:05;;;;;;;20.63;2.53;;;;;;;;;;5092570;28;20123;-72
2023/01/14 07:14:31;;;;;;;27.83;3.47;;;;;;;;;;5092532;28;20131;-71
2023/01/14 07:16:57;;;;;;;39.40;3.25;;;;;;;;;;5092078;28;20062;-71
2023/01/14 07:19:25;;;;;;;11.93;2.17;;;;;;;;;;5092347;28;20043;-71
2023/01/14 07:21:51;;;;;;;17.08;2.03;;;;;;;;;;5090783;28;20058;-71
2023/01/14 07:24:18;;;;;;;21.83;2.65;;;;;;;;;;5091801;28;20044;-72
2023/01/14 07:26:44;;;;;;;21.88;2.47;;;;;;;;;;5084396;28;20500;-70
2023/01/14 07:29:11;;;;;;;12.20;1.75;;;;;;;;;;5087126;28;20054;-70
2023/01/14 07:31:37;;;;;;;18.92;2.15;;;;;;;;;;5090279;28;20044;-70
2023/01/14 07:34:04;;;;;;;14.98;2.50;;;;;;;;;;5089988;28;20139;-70
2023/01/14 07:36:30;;;;;;;15.93;2.28;;;;;;;;;;5091629;28;20497;-70
2023/01/14 07:38:57;;;;;;;15.38;1.88;;;;;;;;;;5086439;28;20403;-71
2023/01/14 07:41:23;;;;;;;12.32;1.90;;;;;;;;;;5091451;28;20044;-70
2023/01/14 07:43:49;;;;;;;14.88;2.15;;;;;;;;;;5091296;28;20381;-71
2023/01/14 07:46:16;;;;;;;6.13;1.20;;;;;;;;;;5090705;28;20110;-70
2023/01/14 07:48:44;;;;;;;7.70;1.63;;;;;;;;;;5091224;28;20058;-71
2023/01/14 07:51:11;;;;;;;6.65;1.35;;;;;;;;;;5090899;28;20048;-71
2023/01/14 07:53:37;;;;;;;6.68;1.80;;;;;;;;;;5090586;28;20080;-71
2023/01/14 07:56:05;;;;;;;7.00;1.00;;;;;;;;;;5090548;28;20468;-71
2023/01/14 07:58:32;;;;;;;8.25;1.20;;;;;;;;;;5090852;28;20070;-71
2023/01/14 08:01:04;;;;;;;11.52;1.40;;;;;;;;;;5089987;28;20056;-71
2023/01/14 08:03:30;;;;;;;5.65;1.00;;;;;;;;;;5091125;28;20054;-71
2023/01/14 08:06:00;;;;;;;6.82;1.33;;;;;;;;;;5089336;28;20457;-72
2023/01/14 08:08:26;;;;;;;14.38;1.77;;;;;;;;;;5090964;28;20407;-72
2023/01/14 08:10:53;;;;;;;11.35;1.55;;;;;;;;;;5090703;28;20052;-72
2023/01/14 08:13:19;;;;;;;2.45;0.70;;;;;;;;;;5090605;28;20515;-72
2023/01/14 08:15:53;;;;;;;14.13;2.17;;;;;;;;;;5090803;28;20380;-72
2023/01/14 08:18:19;;;;;;;4.55;1.00;;;;;;;;;;5090721;28;20136;-71
2023/01/14 08:20:46;;;;;;;7.13;1.10;;;;;;;;;;5088061;28;20044;-72
2023/01/14 08:23:12;;;;;;;6.90;0.95;;;;;;;;;;5089741;28;20044;-71
2023/01/14 08:25:38;;;;;;;6.18;1.05;;;;;;;;;;5089814;28;20150;-72
2023/01/14 08:28:05;;;;;;;4.10;0.85;;;;;;;;;;5090299;28;20044;-71
2023/01/14 08:30:31;;;;;;;9.38;1.83;;;;;;;;;;5090598;28;20052;-71
2023/01/14 08:32:58;;;;;;;5.18;1.08;;;;;;;;;;5090620;28;20086;-72
2023/01/14 08:35:24;;;;;;;3.72;1.05;;;;;;;;;;5090330;28;20398;-72
2023/01/14 08:37:51;;;;;;;9.32;1.00;;;;;;;;;;5090367;28;20555;-72
2023/01/14 08:40:20;;;;;;;12.43;1.70;;;;;;;;;;5090479;28;20052;-71
2023/01/14 08:42:48;;;;;;;15.18;1.85;;;;;;;;;;5091026;28;20094;-72
2023/01/14 08:45:14;;;;;;;10.57;1.33;;;;;;;;;;5090906;28;20048;-71
2023/01/14 08:47:41;;;;;;;8.05;1.05;;;;;;;;;;5094186;28;20459;-71
2023/01/14 08:50:08;;;;;;;9.02;1.15;;;;;;;;;;5091361;28;20075;-71
2023/01/14 08:52:34;;;;;;;7.20;1.08;;;;;;;;;;5093718;28;20052;-72
2023/01/14 08:55:01;;;;;;;4.05;0.80;;;;;;;;;;5093419;28;20135;-71
2023/01/14 08:57:27;;;;;;;8.02;0.80;;;;;;;;;;5093306;28;20123;-71
2023/01/14 08:59:54;;;;;;;2.60;0.60;;;;;;;;;;5092796;28;20066;-71
2023/01/14 09:02:20;;;;;;;4.93;0.63;;;;;;;;;;5093585;28;20068;-71
2023/01/14 09:04:47;;;;;;;4.45;0.52;;;;;;;;;;5093853;28;20127;-71
2023/01/14 09:18:12;;;;;;;16.20;14.77;;;;;;;;;;5093112;28;20044;-71
2023/01/14 09:20:40;;;;;;;16.25;14.85;;;;;;;;;;5091485;28;20051;-71
2023/01/14 09:23:06;;;;;;;;;;;;;;;;;;5093632;28;20086;-72
2023/01/14 09:25:35;;;;;;;4.75;4.35;;;;;;;;;;5090128;28;19920;-71
2023/01/14 09:28:01;;;;;;;8.70;7.90;;;;;;;;;;5092238;28;20051;-70
2023/01/14 09:30:28;;;;;;;9.57;8.73;;;;;;;;;;5090408;28;20048;-71
2023/01/14 09:32:56;;;;;;;7.72;3.92;;;;;;;;;;5082829;28;20084;-71
2023/01/14 09:35:23;;;;;;;8.63;6.35;;;;;;;;;;5088395;28;20130;-71
2023/01/14 09:37:49;;;;;;;10.35;5.05;;;;;;;;;;5084215;28;20408;-71
2023/01/14 09:40:16;;;;;;;16.23;2.85;;;;;;;;;;5083930;28;20040;-71
2023/01/14 09:42:44;;;;;;;13.05;4.75;;;;;;;;;;5077442;28;20487;-72
2023/01/14 09:45:29;;;;;;;20.80;4.85;;;;;;;;;;5093401;28;20044;-71
2023/01/14 09:47:58;;;;;;;13.68;2.22;;;;;;;;;;5093864;28;20084;-71
2023/01/14 09:50:34;;;;;;;22.60;4.70;;;;;;;;;;5093036;28;20050;-71
2023/01/14 09:53:06;;;;;;;13.05;2.50;;;;;;;;;;5092806;28;20484;-71
2023/01/14 09:55:48;;;;;;;19.50;4.35;;;;;;;;;;5093135;28;20101;-71
2023/01/14 09:58:15;;;;;;;17.70;3.47;;;;;;;;;;5092133;28;20087;-71
2023/01/14 10:01:00;;;;;;;21.98;4.97;;;;;;;;;;5092900;28;20048;-72
2023/01/14 10:03:37;;;;;;;17.70;4.32;;;;;;;;;;5092646;28;20054;-72
2023/01/14 10:06:06;;;;;;;20.95;5.53;;;;;;;;;;5092408;28;20530;-71
2023/01/14 10:08:41;;;;;;;24.92;4.40;;;;;;;;;;5092683;28;20042;-72
2023/01/14 10:11:08;;;;;;;22.15;4.93;;;;;;;;;;5092534;28;20047;-71
2023/01/14 10:13:46;;;;;;;19.77;5.07;;;;;;;;;;5092511;28;20040;-71
2023/01/14 10:16:22;;;;;;;17.73;3.15;;;;;;;;;;5092503;28;20051;-72
2023/01/14 10:18:52;;;;;;;8.50;2.90;;;;;;;;;;5092413;28;20517;-80
2023/01/14 10:21:26;;;;;;;19.60;3.42;;;;;;;;;;5090764;28;20048;-72
2023/01/14 10:23:52;;;;;;;15.18;3.97;;;;;;;;;;5092523;28;20052;-72
2023/01/14 10:26:20;;;;;;;20.50;3.42;;;;;;;;;;5092380;28;20058;-72
2023/01/14 10:28:48;;;;;;;18.95;3.60;;;;;;;;;;5092566;28;20047;-72
2023/01/14 10:31:27;;;;;;;12.93;2.80;;;;;;;;;;5091163;28;20047;-72
2023/01/14 10:33:53;;;;;;;15.93;2.38;;;;;;;;;;5092122;28;20059;-72
2023/01/14 10:36:22;;;;;;;12.02;3.17;;;;;;;;;;5092276;28;20101;-73
2023/01/14 10:38:49;;;;;;;12.27;2.65;;;;;;;;;;5081298;28;20048;-73
2023/01/14 10:41:16;;;;;;;14.27;2.40;;;;;;;;;;5090818;28;20051;-73
2023/01/14 10:43:51;;;;;;;17.15;4.32;;;;;;;;;;5091936;28;20043;-72
2023/01/14 10:46:19;;;;;;;23.25;10.48;;;;;;;;;;5092037;28;20076;-72
2023/01/14 10:48:55;;;;;;;26.85;11.20;;;;;;;;;;5092103;28;20044;-72
2023/01/14 10:51:36;;;;;;;21.25;10.10;;;;;;;;;;5092443;28;20491;-72
2023/01/14 10:54:13;;;;;;;14.52;5.00;;;;;;;;;;5083050;28;20123;-72
2023/01/14 10:56:41;;;;;;;15.98;6.53;;;;;;;;;;5090645;28;20085;-72
2023/01/14 10:59:22;;;;;;;14.50;6.95;;;;;;;;;;5090046;28;20056;-72
2023/01/14 11:01:48;;;;;;;14.40;4.90;;;;;;;;;;5086398;28;20113;-71
2023/01/14 11:04:15;;;;;;;19.13;6.47;;;;;;;;;;5091346;28;20122;-72
2023/01/14 11:06:41;;;;;;;10.60;3.40;;;;;;;;;;5088640;28;20086;-72
2023/01/14 11:09:16;;;;;;;14.20;4.07;;;;;;;;;;5088188;28;20046;-72
2023/01/14 11:11:43;;;;;;;11.38;4.35;;;;;;;;;;5091371;28;20062;-71
2023/01/14 11:14:25;;;;;;;14.30;3.25;;;;;;;;;;5091028;28;20058;-71
2023/01/14 11:16:51;;;;;;;9.63;3.10;;;;;;;;;;5091099;28;20415;-72
2023/01/14 11:19:20;;;;;;;12.18;2.75;;;;;;;;;;5083235;28;20052;-73
2023/01/14 11:21:49;;;;;;;11.45;1.60;;;;;;;;;;5078625;28;20139;-72
2023/01/14 11:24:35;;;;;;;13.50;2.47;;;;;;;;;;5090630;28;20080;-72
2023/01/14 11:27:03;;;;;;;11.95;2.97;;;;;;;;;;5107537;28;20068;-73
2023/01/14 11:29:32;;;;;;;10.90;2.15;;;;;;;;;;5090917;28;20189;-73
2023/01/14 11:32:06;;;;;;;8.90;1.80;;;;;;;;;;5091711;28;20048;-73
2023/01/14 11:34:35;;;;;;;11.43;1.98;;;;;;;;;;5091702;28;20503;-73
2023/01/14 11:37:21;;;;;;;12.57;2.50;;;;;;;;;;5092103;28;20142;-73
2023/01/14 11:39:53;;;;;;;4.68;1.05;;;;;;;;;;5092001;28;20047;-73
2023/01/14 11:42:29;;;;;;;7.55;1.25;;;;;;;;;;5091865;28;20047;-73
2023/01/14 11:45:14;;;;;;;6.35;0.80;;;;;;;;;;5092068;28;20135;-73
2023/01/14 11:47:51;;;;;;;5.65;0.77;;;;;;;;;;5091543;28;20048;-74
2023/01/14 11:50:22;;;;;;;3.73;0.73;;;;;;;;;;5091639;28;20380;-73
2023/01/14 11:53:15;;;;;;;3.22;0.90;;;;;;;;;;5091540;28;20273;-73
2023/01/14 11:55:41;;;;;;;5.18;1.00;;;;;;;;;;5091503;28;20101;-73
2023/01/14 11:58:19;;;;;;;6.05;1.00;;;;;;;;;;5091536;28;20130;-73
2023/01/14 12:00:45;;;;;;;;;;;;;;;;;;5091685;28;20074;-73
2023/01/14 12:03:25;;;;;;;4.25;1.25;;;;;;;;;;5091428;28;19924;-73
2023/01/14 12:05:52;;;;;;;8.55;1.45;;;;;;;;;;5091415;28;20127;-74
2023/01/14 12:08:20;;;;;;;7.68;1.10;;;;;;;;;;5091676;28;20125;-74
2023/01/14 12:10:46;;;;;;;;;;;;;;;;;;5092230;28;20052;-73
2023/01/14 12:19:01;;;;;;;13.05;1.75;;;;;;;;;;5091285;28;20554;-73
2023/01/14 12:21:32;;;;;;;8.90;1.80;;;;;;;;;;5093108;28;20050;-73
2023/01/14 12:24:06;;;;;;;8.40;1.50;;;;;;;;;;5094924;28;20140;-73
2023/01/14 12:26:35;;;;;;;9.25;1.17;;;;;;;;;;5095447;28;20044;-74
2023/01/14 12:29:03;;;;;;;9.65;2.28;;;;;;;;;;5092061;28;20479;-74
2023/01/14 12:31:41;;;;;;;6.75;1.33;;;;;;;;;;5094849;28;20488;-74
2023/01/14 12:34:22;;;;;;;9.40;1.38;;;;;;;;;;5094538;28;20101;-74
2023/01/14 12:36:51;;;;;;;12.02;2.17;;;;;;;;;;5094841;28;20039;-74
2023/01/14 12:45:44;;;;;;;4.82;1.20;;;;;;;;;;5094903;28;20067;-74
2023/01/14 12:48:12;;;;;;;3.78;0.80;;;;;;;;;;5089160;28;20044;-76
2023/01/14 12:50:44;;;;;;;7.63;1.27;;;;;;;;;;5094205;28;20050;-75
2023/01/14 12:53:22;;;;;;;4.97;0.88;;;;;;;;;;5093667;28;20051;-77
2023/01/14 12:55:50;;;;;;;7.88;1.17;;;;;;;;;;5093728;28;20054;-75
2023/01/14 12:58:24;;;;;;;8.60;1.17;;;;;;;;;;5094575;28;20052;-73
2023/01/14 13:00:52;;;;;;;10.02;1.17;;;;;;;;;;5094772;28;20083;-74
2023/01/14 13:03:32;;;;;;;5.85;1.10;;;;;;;;;;5110536;28;20565;-77
2023/01/14 13:06:06;;;;;;;5.95;1.83;;;;;;;;;;5094132;28;20105;-79
2023/01/14 13:08:34;;;;;;;5.20;0.88;;;;;;;;;;5094516;28;20495;-75
2023/01/14 13:11:00;;;;;;;;;;;;;;;;;;5110869;28;20440;-79
2023/01/14 13:13:28;;;;;;;2.70;1.13;;;;;;;;;;5092921;28;19989;-77
2023/01/14 13:15:57;;;;;;;4.90;1.05;;;;;;;;;;5094617;28;20056;-73
2023/01/14 13:18:35;;;;;;;5.25;1.30;;;;;;;;;;5093919;28;20139;-76
2023/01/14 13:21:04;;;;;;;2.50;1.05;;;;;;;;;;5091810;28;20082;-74
2023/01/14 13:23:36;;;;;;;5.32;1.45;;;;;;;;;;5093717;28;20645;-74
2023/01/14 13:26:15;;;;;;;2.75;1.40;;;;;;;;;;5094006;28;20050;-74
2023/01/14 13:29:00;;;;;;;3.53;0.88;;;;;;;;;;5094154;28;20040;-75
2023/01/14 13:31:32;;;;;;;2.58;0.80;;;;;;;;;;5094653;28;20059;-75
2023/01/14 13:34:18;;;;;;;3.00;0.85;;;;;;;;;;5092341;28;20130;-76
2023/01/14 13:36:45;;;;;;;2.95;0.70;;;;;;;;;;5082466;28;20056;-76
2023/01/14 13:39:17;;;;;;;3.75;0.80;;;;;;;;;;5093820;28;20040;-76
2023/01/14 13:41:46;;;;;;;2.85;0.52;;;;;;;;;;5093886;28;20080;-76
2023/01/14 13:44:25;;;;;;;3.75;0.85;;;;;;;;;;5093445;28;20426;-76
2023/01/14 13:46:53;;;;;;;3.97;0.70;;;;;;;;;;5093792;28;20118;-76
2023/01/14 13:49:25;;;;;;;3.15;0.85;;;;;;;;;;5093791;28;20044;-76
2023/01/14 13:51:56;;;;;;;7.97;0.80;;;;;;;;;;5093890;28;20058;-76
2023/01/14 13:54:26;;;;;;;7.43;1.30;;;;;;;;;;5093436;28;20047;-76
2023/01/14 13:57:06;;;;;;;3.60;1.05;;;;;;;;;;5093792;28;20044;-77
2023/01/14 13:59:33;;;;;;;5.32;1.25;;;;;;;;;;5093856;28;20048;-76
2023/01/14 14:02:00;;;;;;;12.00;1.70;;;;;;;;;;5092689;28;20051;-74
2023/01/14 14:04:45;;;;;;;9.87;2.70;;;;;;;;;;5093860;28;20083;-77
2023/01/14 14:07:31;;;;;;;10.43;2.47;;;;;;;;;;5093366;28;20506;-77
2023/01/14 14:10:01;;;;;;;7.28;1.42;;;;;;;;;;5093331;28;20040;-77
2023/01/14 14:15:20;;;;;;;8.13;2.40;;;;;;;;;;5093577;28;20130;-77
2023/01/14 14:17:50;;;;;;;11.65;2.60;;;;;;;;;;5093620;28;20132;-77
2023/01/14 14:20:18;;;;;;;14.70;3.45;;;;;;;;;;5093265;28;20047;-77
2023/01/14 14:22:50;;;;;;;8.68;2.85;;;;;;;;;;5091731;28;20043;-78
2023/01/14 14:25:18;;;;;;;16.02;4.20;;;;;;;;;;5093230;28;20127;-77
2023/01/14 14:27:46;;;;;;;12.88;3.88;;;;;;;;;;5085953;28;20046;-75
2023/01/14 14:30:13;;;;;;;14.90;2.58;;;;;;;;;;5089824;28;20044;-77
2023/01/14 14:32:57;;;;;;;10.40;2.83;;;;;;;;;;5092248;28;20067;-75
2023/01/14 14:35:24;;;;;;;14.88;4.30;;;;;;;;;;5092731;28;20580;-75
2023/01/14 14:37:51;;;;;;;12.38;2.70;;;;;;;;;;5094864;28;20131;-76
2023/01/14 14:40:20;;;;;;;10.65;2.20;;;;;;;;;;5092490;28;20040;-76
2023/01/14 14:42:47;;;;;;;13.77;2.33;;;;;;;;;;5092227;28;20044;-77
2023/01/14 14:45:27;;;;;;;12.15;2.20;;;;;;;;;;5090733;28;20380;-76
2023/01/14 14:47:54;;;;;;;12.85;2.10;;;;;;;;;;5092387;28;20464;-77
2023/01/14 14:50:29;;;;;;;9.55;1.77;;;;;;;;;;5090467;28;20131;-76
2023/01/14 14:52:55;;;;;;;11.20;2.65;;;;;;;;;;5107819;28;20507;-76
2023/01/14 14:55:22;;;;;;;14.52;2.63;;;;;;;;;;5091961;28;20131;-76
2023/01/14 14:57:49;;;;;;;10.63;2.33;;;;;;;;;;5092364;28;20055;-77
2023/01/14 15:00:16;;;;;;;12.82;2.35;;;;;;;;;;5091811;28;20503;-78
2023/01/14 15:02:46;;;;;;;15.02;2.53;;;;;;;;;;5092105;28;20077;-76
2023/01/14 15:05:24;;;;;;;12.30;2.13;;;;;;;;;;5091793;28;20379;-76
2023/01/14 15:07:52;;;;;;;12.32;1.75;;;;;;;;;;5091739;28;20086;-76
2023/01/14 15:10:18;;;;;;;;;;;;;;;;;;5091865;28;20048;-78
2023/01/14 15:12:45;;;;;;;14.93;2.08;;;;;;;;;;5091168;28;19982;-77
2023/01/14 15:15:19;;;;;;;14.27;4.95;;;;;;;;;;5091746;28;20051;-78
2023/01/14 15:17:46;;;;;;;19.30;3.15;;;;;;;;;;5091924;28;20131;-73
2023/01/14 15:20:14;;;;;;;17.13;4.00;;;;;;;;;;5107169;28;20411;-75
2023/01/14 15:22:41;;;;;;;13.93;2.92;;;;;;;;;;5091707;28;20048;-71
2023/01/14 15:25:11;;;;;;;14.83;3.00;;;;;;;;;;5091642;28;20074;-70
2023/01/14 15:27:38;;;;;;;12.80;3.08;;;;;;;;;;5091496;28;20079;-80
2023/01/14 15:30:22;;;;;;;18.45;4.07;;;;;;;;;;5091699;28;20048;-70
2023/01/14 15:32:48;;;;;;;17.92;3.58;;;;;;;;;;5091300;28;20192;-72